createdAt,value
2018-06-10T00:00:48.571Z,987.11
2018-06-10T00:01:48.576Z,987.11
2018-06-10T00:02:48.576Z,987.06
2018-06-10T00:03:48.578Z,987.06
2018-06-10T00:04:48.581Z,987.04
2018-06-10T00:05:48.584Z,987
2018-06-10T00:06:48.589Z,987.03
2018-06-10T00:07:48.589Z,986.98
2018-06-10T00:08:48.586Z,986.96
2018-06-10T00:09:48.589Z,986.95
2018-06-10T00:10:48.592Z,986.91
2018-06-10T00:11:48.595Z,986.89
2018-06-10T00:12:48.596Z,986.91
2018-06-10T00:13:48.599Z,986.87
2018-06-10T00:14:48.600Z,986.91
2018-06-10T00:15:48.603Z,986.94
2018-06-10T00:16:48.606Z,986.91
2018-06-10T00:17:48.605Z,986.9
2018-06-10T00:18:48.607Z,986.94
2018-06-10T00:19:48.613Z,986.91
2018-06-10T00:20:48.612Z,986.91
2018-06-10T00:21:48.616Z,986.88
2018-06-10T00:22:48.614Z,986.87
2018-06-10T00:23:48.620Z,986.85
2018-06-10T00:24:48.622Z,986.83
2018-06-10T00:25:48.623Z,986.86
2018-06-10T00:26:48.624Z,986.86
2018-06-10T00:27:48.627Z,986.8
2018-06-10T00:28:48.630Z,986.82
2018-06-10T00:29:48.629Z,986.78
2018-06-10T00:30:48.639Z,986.75
2018-06-10T00:31:48.632Z,986.68
2018-06-10T00:32:48.634Z,986.67
2018-06-10T00:33:48.637Z,986.69
2018-06-10T00:34:48.641Z,986.66
2018-06-10T00:35:48.643Z,986.67
2018-06-10T00:36:48.649Z,986.64
2018-06-10T00:37:48.646Z,986.64
2018-06-10T00:38:48.649Z,986.66
2018-06-10T00:39:48.649Z,986.65
2018-06-10T00:40:48.649Z,986.64
2018-06-10T00:41:48.653Z,986.6
2018-06-10T00:42:48.655Z,986.61
2018-06-10T00:43:48.655Z,986.57
2018-06-10T00:44:48.667Z,986.56
2018-06-10T00:45:48.661Z,986.53
2018-06-10T00:46:48.662Z,986.55
2018-06-10T00:47:48.663Z,986.52
2018-06-10T00:48:48.668Z,986.59
2018-06-10T00:49:48.670Z,986.55
2018-06-10T00:50:48.669Z,986.63
2018-06-10T00:51:48.683Z,986.6
2018-06-10T00:52:48.678Z,986.6
2018-06-10T00:53:48.672Z,986.57
2018-06-10T00:54:48.675Z,986.59
2018-06-10T00:55:48.680Z,986.6
2018-06-10T00:56:48.684Z,986.6
2018-06-10T00:57:48.679Z,986.6
2018-06-10T00:58:48.685Z,986.58
2018-06-10T00:59:48.684Z,986.59
2018-06-10T01:00:48.686Z,986.58
2018-06-10T01:01:48.690Z,986.59
2018-06-10T01:02:48.702Z,986.57
2018-06-10T01:03:48.692Z,986.6
2018-06-10T01:04:48.693Z,986.62
2018-06-10T01:05:48.699Z,986.61
2018-06-10T01:06:48.705Z,986.6
2018-06-10T01:07:48.699Z,986.58
2018-06-10T01:08:48.701Z,986.58
2018-06-10T01:09:48.703Z,986.59
2018-06-10T01:10:48.703Z,986.59
2018-06-10T01:11:48.707Z,986.59
2018-06-10T01:12:48.709Z,986.62
2018-06-10T01:13:48.757Z,986.6
2018-06-10T01:14:48.713Z,986.58
2018-06-10T01:15:48.713Z,986.58
2018-06-10T01:16:48.714Z,986.54
2018-06-10T01:17:48.717Z,986.51
2018-06-10T01:18:48.719Z,986.49
2018-06-10T01:19:48.730Z,986.52
2018-06-10T01:20:48.720Z,986.53
2018-06-10T01:21:48.725Z,986.51
2018-06-10T01:22:48.725Z,986.48
2018-06-10T01:23:48.725Z,986.47
2018-06-10T01:24:48.730Z,986.45
2018-06-10T01:25:48.735Z,986.44
2018-06-10T01:26:48.729Z,986.45
2018-06-10T01:27:48.732Z,986.42
2018-06-10T01:28:48.734Z,986.44
2018-06-10T01:29:48.750Z,986.4
2018-06-10T01:30:48.737Z,986.44
2018-06-10T01:31:48.740Z,986.41
2018-06-10T01:32:48.748Z,986.4
2018-06-10T01:33:48.744Z,986.42
2018-06-10T01:34:48.744Z,986.41
2018-06-10T01:35:48.753Z,986.41
2018-06-10T01:36:48.747Z,986.44
2018-06-10T01:37:48.747Z,986.43
2018-06-10T01:38:48.751Z,986.44
2018-06-10T01:39:48.756Z,986.43
2018-06-10T01:40:48.752Z,986.45
2018-06-10T01:41:48.756Z,986.42
2018-06-10T01:42:48.757Z,986.43
2018-06-10T01:43:48.761Z,986.44
2018-06-10T01:44:49.017Z,986.42
2018-06-10T01:45:48.764Z,986.4
2018-06-10T01:46:48.766Z,986.34
2018-06-10T01:47:48.766Z,986.34
2018-06-10T01:48:48.768Z,986.31
2018-06-10T01:49:48.776Z,986.25
2018-06-10T01:50:48.778Z,986.25
2018-06-10T01:51:48.793Z,986.2
2018-06-10T01:52:48.783Z,986.19
2018-06-10T01:53:48.788Z,986.19
2018-06-10T01:54:48.781Z,986.24
2018-06-10T01:55:48.793Z,986.24
2018-06-10T01:56:48.790Z,986.23
2018-06-10T01:57:48.781Z,986.26
2018-06-10T01:58:48.799Z,986.25
2018-06-10T01:59:48.792Z,986.24
2018-06-10T02:00:48.787Z,986.21
2018-06-10T02:01:48.798Z,986.17
2018-06-10T02:02:48.796Z,986.17
2018-06-10T02:03:48.793Z,986.18
2018-06-10T02:04:48.793Z,986.17
2018-06-10T02:05:48.797Z,986.17
2018-06-10T02:06:48.800Z,986.21
2018-06-10T02:07:48.805Z,986.23
2018-06-10T02:08:48.806Z,986.27
2018-06-10T02:09:48.807Z,986.27
2018-06-10T02:10:48.809Z,986.29
2018-06-10T02:11:48.821Z,986.25
2018-06-10T02:12:48.808Z,986.29
2018-06-10T02:13:48.812Z,986.24
2018-06-10T02:14:48.810Z,986.23
2018-06-10T02:15:48.812Z,986.25
2018-06-10T02:16:48.816Z,986.22
2018-06-10T02:17:48.818Z,986.21
2018-06-10T02:18:48.819Z,986.26
2018-06-10T02:19:48.822Z,986.27
2018-06-10T02:20:48.822Z,986.22
2018-06-10T02:21:48.825Z,986.23
2018-06-10T02:22:48.831Z,986.25
2018-06-10T02:23:48.831Z,986.22
2018-06-10T02:24:48.833Z,986.22
2018-06-10T02:25:48.831Z,986.2
2018-06-10T02:26:48.828Z,986.2
2018-06-10T02:27:48.832Z,986.19
2018-06-10T02:28:48.834Z,986.19
2018-06-10T02:29:48.832Z,986.2
2018-06-10T02:30:48.856Z,986.21
2018-06-10T02:31:48.838Z,986.22
2018-06-10T02:32:48.844Z,986.19
2018-06-10T02:33:48.863Z,986.21
2018-06-10T02:34:48.843Z,986.2
2018-06-10T02:35:48.848Z,986.21
2018-06-10T02:36:48.858Z,986.18
2018-06-10T02:37:48.849Z,986.22
2018-06-10T02:38:48.849Z,986.17
2018-06-10T02:39:48.849Z,986.18
2018-06-10T02:40:48.852Z,986.16
2018-06-10T02:41:48.852Z,986.16
2018-06-10T02:42:48.860Z,986.13
2018-06-10T02:43:48.858Z,986.1
2018-06-10T02:44:48.870Z,986.14
2018-06-10T02:45:48.881Z,986.16
2018-06-10T02:46:48.873Z,986.2
2018-06-10T02:47:48.873Z,986.17
2018-06-10T02:48:48.899Z,986.18
2018-06-10T02:49:48.885Z,986.18
2018-06-10T02:50:48.874Z,986.16
2018-06-10T02:51:48.897Z,986.17
2018-06-10T02:52:48.885Z,986.14
2018-06-10T02:53:48.881Z,986.08
2018-06-10T02:54:48.873Z,986.09
2018-06-10T02:55:48.881Z,986.07
2018-06-10T02:56:48.877Z,986.06
2018-06-10T02:57:48.878Z,986.04
2018-06-10T02:58:48.878Z,986.07
2018-06-10T02:59:48.880Z,986.08
2018-06-10T03:00:48.889Z,986.1
2018-06-10T03:01:48.891Z,986.11
2018-06-10T03:02:48.946Z,986.08
2018-06-10T03:03:48.887Z,986.07
2018-06-10T03:04:48.884Z,986.08
2018-06-10T03:05:48.887Z,986.1
2018-06-10T03:06:48.888Z,986.09
2018-06-10T03:07:48.899Z,986.07
2018-06-10T03:08:48.903Z,986.11
2018-06-10T03:09:48.893Z,986.08
2018-06-10T03:10:48.897Z,986.13
2018-06-10T03:11:48.897Z,986.11
2018-06-10T03:12:48.895Z,986.09
2018-06-10T03:13:48.900Z,986.1
2018-06-10T03:14:48.902Z,986.1
2018-06-10T03:15:49.699Z,986.14
2018-06-10T03:16:48.913Z,986.13
2018-06-10T03:17:48.911Z,986.12
2018-06-10T03:18:48.912Z,986.2
2018-06-10T03:19:48.910Z,986.13
2018-06-10T03:20:48.905Z,986.15
2018-06-10T03:21:48.908Z,986.16
2018-06-10T03:22:48.909Z,986.16
2018-06-10T03:23:48.912Z,986.16
2018-06-10T03:24:48.913Z,986.16
2018-06-10T03:25:48.913Z,986.2
2018-06-10T03:26:48.925Z,986.17
2018-06-10T03:27:48.916Z,986.18
2018-06-10T03:28:48.920Z,986.19
2018-06-10T03:29:48.921Z,986.15
2018-06-10T03:30:48.926Z,986.21
2018-06-10T03:31:48.935Z,986.14
2018-06-10T03:32:48.925Z,986.17
2018-06-10T03:33:48.926Z,986.21
2018-06-10T03:34:48.931Z,986.19
2018-06-10T03:35:48.926Z,986.22
2018-06-10T03:36:48.941Z,986.23
2018-06-10T03:37:48.932Z,986.2
2018-06-10T03:38:48.943Z,986.25
2018-06-10T03:39:48.938Z,986.22
2018-06-10T03:40:48.968Z,986.22
2018-06-10T03:41:48.959Z,986.21
2018-06-10T03:42:48.948Z,986.21
2018-06-10T03:43:48.946Z,986.2
2018-06-10T03:44:48.956Z,986.17
2018-06-10T03:45:48.952Z,986.2
2018-06-10T03:46:48.948Z,986.19
2018-06-10T03:47:48.954Z,986.21
2018-06-10T03:48:48.948Z,986.2
2018-06-10T03:49:48.967Z,986.23
2018-06-10T03:50:48.963Z,986.25
2018-06-10T03:51:48.970Z,986.26
2018-06-10T03:52:48.967Z,986.24
2018-06-10T03:53:48.980Z,986.24
2018-06-10T03:54:48.965Z,986.22
2018-06-10T03:55:48.976Z,986.23
2018-06-10T03:56:48.968Z,986.19
2018-06-10T03:57:48.977Z,986.2
2018-06-10T03:58:48.971Z,986.27
2018-06-10T03:59:48.977Z,986.28
2018-06-10T04:00:48.982Z,986.31
2018-06-10T04:01:48.980Z,986.36
2018-06-10T04:02:48.984Z,986.34
2018-06-10T04:03:49.011Z,986.4
2018-06-10T04:04:48.994Z,986.37
2018-06-10T04:05:49.020Z,986.42
2018-06-10T04:06:48.987Z,986.41
2018-06-10T04:07:48.991Z,986.42
2018-06-10T04:08:48.986Z,986.41
2018-06-10T04:09:48.996Z,986.4
2018-06-10T04:10:48.997Z,986.47
2018-06-10T04:11:49.000Z,986.46
2018-06-10T04:12:48.994Z,986.4
2018-06-10T04:13:48.996Z,986.42
2018-06-10T04:14:49.001Z,986.38
2018-06-10T04:15:49.002Z,986.43
2018-06-10T04:16:49.009Z,986.38
2018-06-10T04:17:49.007Z,986.41
2018-06-10T04:18:49.010Z,986.39
2018-06-10T04:19:49.014Z,986.39
2018-06-10T04:20:49.025Z,986.39
2018-06-10T04:21:49.025Z,986.34
2018-06-10T04:22:49.030Z,986.37
2018-06-10T04:23:49.033Z,986.36
2018-06-10T04:24:49.027Z,986.39
2018-06-10T04:25:49.029Z,986.34
2018-06-10T04:26:49.044Z,986.32
2018-06-10T04:27:49.034Z,986.35
2018-06-10T04:28:49.053Z,986.36
2018-06-10T04:29:49.042Z,986.33
2018-06-10T04:30:49.053Z,986.33
2018-06-10T04:31:49.055Z,986.35
2018-06-10T04:32:49.051Z,986.37
2018-06-10T04:33:49.061Z,986.42
2018-06-10T04:34:49.056Z,986.46
2018-06-10T04:35:49.059Z,986.43
2018-06-10T04:36:49.062Z,986.43
2018-06-10T04:37:49.059Z,986.42
2018-06-10T04:38:49.062Z,986.42
2018-06-10T04:39:49.067Z,986.43
2018-06-10T04:40:49.068Z,986.43
2018-06-10T04:41:49.071Z,986.46
2018-06-10T04:42:49.075Z,986.47
2018-06-10T04:43:49.081Z,986.5
2018-06-10T04:44:49.081Z,986.51
2018-06-10T04:45:49.083Z,986.54
2018-06-10T04:46:49.088Z,986.53
2018-06-10T04:47:49.092Z,986.48
2018-06-10T04:48:49.113Z,986.5
2018-06-10T04:49:49.099Z,986.45
2018-06-10T04:50:49.100Z,986.45
2018-06-10T04:51:49.107Z,986.47
2018-06-10T04:52:49.110Z,986.45
2018-06-10T04:53:49.119Z,986.44
2018-06-10T04:54:49.117Z,986.49
2018-06-10T04:55:49.120Z,986.54
2018-06-10T04:56:49.125Z,986.6
2018-06-10T04:57:49.128Z,986.57
2018-06-10T04:58:49.130Z,986.65
2018-06-10T04:59:49.134Z,986.66
2018-06-10T05:00:49.139Z,986.64
2018-06-10T05:01:49.143Z,986.59
2018-06-10T05:02:49.148Z,986.56
2018-06-10T05:03:49.151Z,986.59
2018-06-10T05:04:49.165Z,986.56
2018-06-10T05:05:49.160Z,986.56
2018-06-10T05:06:49.169Z,986.5
2018-06-10T05:07:49.177Z,986.54
2018-06-10T05:08:49.173Z,986.51
2018-06-10T05:09:49.179Z,986.52
2018-06-10T05:10:49.185Z,986.52
2018-06-10T05:11:49.188Z,986.46
2018-06-10T05:12:49.192Z,986.43
2018-06-10T05:13:49.197Z,986.42
2018-06-10T05:14:49.203Z,986.38
2018-06-10T05:15:49.212Z,986.39
2018-06-10T05:16:49.228Z,986.36
2018-06-10T05:17:49.231Z,986.35
2018-06-10T05:18:49.225Z,986.38
2018-06-10T05:19:49.326Z,986.42
2018-06-10T05:20:49.239Z,986.37
2018-06-10T05:21:49.242Z,986.4
2018-06-10T05:22:49.248Z,986.36
2018-06-10T05:23:49.251Z,986.33
2018-06-10T05:24:49.258Z,986.34
2018-06-10T05:25:49.264Z,986.35
2018-06-10T05:26:49.270Z,986.31
2018-06-10T05:27:49.276Z,986.34
2018-06-10T05:28:49.281Z,986.32
2018-06-10T05:29:49.288Z,986.25
2018-06-10T05:30:49.306Z,986.26
2018-06-10T05:31:49.300Z,986.29
2018-06-10T05:32:49.312Z,986.3
2018-06-10T05:33:49.312Z,986.31
2018-06-10T05:34:49.318Z,986.33
2018-06-10T05:35:49.326Z,986.36
2018-06-10T05:36:49.332Z,986.37
2018-06-10T05:37:49.341Z,986.39
2018-06-10T05:38:49.346Z,986.42
2018-06-10T05:39:49.356Z,986.43
2018-06-10T05:40:49.361Z,986.42
2018-06-10T05:41:49.367Z,986.49
2018-06-10T05:42:49.371Z,986.47
2018-06-10T05:43:49.381Z,986.45
2018-06-10T05:44:49.385Z,986.46
2018-06-10T05:45:49.402Z,986.49
2018-06-10T05:46:49.408Z,986.49
2018-06-10T05:47:49.424Z,986.51
2018-06-10T05:48:49.422Z,986.47
2018-06-10T05:49:49.419Z,986.51
2018-06-10T05:50:49.429Z,986.5
2018-06-10T05:51:49.437Z,986.55
2018-06-10T05:52:49.445Z,986.52
2018-06-10T05:53:49.449Z,986.58
2018-06-10T05:54:49.457Z,986.57
2018-06-10T05:55:49.465Z,986.56
2018-06-10T05:56:49.472Z,986.6
2018-06-10T05:57:49.482Z,986.59
2018-06-10T05:58:49.487Z,986.59
2018-06-10T05:59:49.495Z,986.56
2018-06-10T06:00:49.510Z,986.61
2018-06-10T06:01:49.514Z,986.6
2018-06-10T06:02:49.519Z,986.65
2018-06-10T06:03:49.575Z,986.62
2018-06-10T06:04:49.532Z,986.63
2018-06-10T06:05:49.539Z,986.63
2018-06-10T06:06:49.549Z,986.68
2018-06-10T06:07:49.553Z,986.65
2018-06-10T06:08:49.561Z,986.61
2018-06-10T06:09:49.567Z,986.63
2018-06-10T06:10:49.580Z,986.67
2018-06-10T06:11:49.589Z,986.67
2018-06-10T06:12:49.608Z,986.69
2018-06-10T06:13:49.604Z,986.68
2018-06-10T06:14:49.608Z,986.72
2018-06-10T06:15:49.617Z,986.67
2018-06-10T06:16:49.844Z,986.71
2018-06-10T06:17:49.633Z,986.71
2018-06-10T06:18:49.641Z,986.73
2018-06-10T06:19:49.649Z,986.68
2018-06-10T06:20:49.658Z,986.69
2018-06-10T06:21:49.665Z,986.69
2018-06-10T06:22:49.673Z,986.64
2018-06-10T06:23:49.689Z,986.64
2018-06-10T06:24:49.695Z,986.65
2018-06-10T06:25:49.698Z,986.62
2018-06-10T06:26:49.706Z,986.61
2018-06-10T06:27:49.719Z,986.65
2018-06-10T06:28:49.723Z,986.61
2018-06-10T06:29:49.730Z,986.65
2018-06-10T06:30:49.752Z,986.67
2018-06-10T06:31:49.749Z,986.64
2018-06-10T06:32:49.758Z,986.68
2018-06-10T06:33:49.765Z,986.7
2018-06-10T06:34:49.781Z,986.72
2018-06-10T06:35:49.781Z,986.7
2018-06-10T06:36:49.791Z,986.72
2018-06-10T06:37:49.799Z,986.76
2018-06-10T06:38:49.808Z,986.72
2018-06-10T06:39:49.820Z,986.69
2018-06-10T06:40:49.824Z,986.72
2018-06-10T06:41:49.835Z,986.69
2018-06-10T06:42:49.842Z,986.69
2018-06-10T06:43:49.852Z,986.69
2018-06-10T06:44:49.864Z,986.7
2018-06-10T06:45:49.870Z,986.67
2018-06-10T06:46:50.132Z,986.69
2018-06-10T06:47:49.933Z,986.69
2018-06-10T06:48:49.899Z,986.71
2018-06-10T06:49:49.908Z,986.7
2018-06-10T06:50:49.911Z,986.68
2018-06-10T06:51:49.933Z,986.69
2018-06-10T06:52:49.927Z,986.7
2018-06-10T06:53:49.943Z,986.72
2018-06-10T06:54:49.953Z,986.66
2018-06-10T06:55:49.960Z,986.64
2018-06-10T06:56:49.976Z,986.66
2018-06-10T06:57:49.979Z,986.69
2018-06-10T06:58:49.985Z,986.65
2018-06-10T06:59:49.993Z,986.66
2018-06-10T07:00:50.002Z,986.65
2018-06-10T07:01:50.007Z,986.61
2018-06-10T07:02:50.034Z,986.58
2018-06-10T07:03:50.023Z,986.59
2018-06-10T07:04:50.034Z,986.57
2018-06-10T07:05:50.041Z,986.56
2018-06-10T07:06:50.049Z,986.54
2018-06-10T07:07:50.058Z,986.55
2018-06-10T07:08:50.070Z,986.57
2018-06-10T07:09:50.073Z,986.55
2018-06-10T07:10:50.080Z,986.56
2018-06-10T07:11:50.093Z,986.58
2018-06-10T07:12:50.101Z,986.57
2018-06-10T07:13:50.107Z,986.53
2018-06-10T07:14:50.113Z,986.6
2018-06-10T07:15:50.133Z,986.61
2018-06-10T07:16:51.995Z,986.6
2018-06-10T07:17:50.153Z,986.59
2018-06-10T07:18:50.146Z,986.59
2018-06-10T07:19:50.156Z,986.59
2018-06-10T07:20:50.168Z,986.61
2018-06-10T07:21:50.172Z,986.62
2018-06-10T07:22:50.180Z,986.59
2018-06-10T07:23:50.193Z,986.58
2018-06-10T07:24:50.198Z,986.55
2018-06-10T07:25:50.203Z,986.6
2018-06-10T07:26:50.227Z,986.58
2018-06-10T07:27:50.235Z,986.57
2018-06-10T07:28:50.236Z,986.56
2018-06-10T07:29:50.240Z,986.56
2018-06-10T07:30:50.253Z,986.62
2018-06-10T07:31:50.315Z,986.64
2018-06-10T07:32:50.268Z,986.64
2018-06-10T07:33:50.287Z,986.61
2018-06-10T07:34:50.296Z,986.62
2018-06-10T07:35:50.293Z,986.61
2018-06-10T07:36:50.386Z,986.67
2018-06-10T07:37:50.310Z,986.66
2018-06-10T07:38:50.321Z,986.72
2018-06-10T07:39:50.332Z,986.73
2018-06-10T07:40:50.335Z,986.72
2018-06-10T07:41:50.349Z,986.75
2018-06-10T07:42:50.354Z,986.76
2018-06-10T07:43:50.365Z,986.79
2018-06-10T07:44:50.371Z,986.78
2018-06-10T07:45:50.382Z,986.79
2018-06-10T07:46:50.390Z,986.73
2018-06-10T07:47:50.423Z,986.7
2018-06-10T07:48:50.412Z,986.7
2018-06-10T07:49:50.416Z,986.69
2018-06-10T07:50:50.430Z,986.7
2018-06-10T07:51:50.436Z,986.68
2018-06-10T07:52:50.451Z,986.65
2018-06-10T07:53:50.456Z,986.66
2018-06-10T07:54:50.475Z,986.66
2018-06-10T07:55:50.480Z,986.62
2018-06-10T07:56:50.484Z,986.6
2018-06-10T07:57:50.509Z,986.65
2018-06-10T07:58:50.500Z,986.67
2018-06-10T07:59:50.515Z,986.67
2018-06-10T08:00:50.520Z,986.64
2018-06-10T08:01:50.528Z,986.7
2018-06-10T08:02:50.536Z,986.71
2018-06-10T08:03:50.549Z,986.7
2018-06-10T08:04:50.558Z,986.71
2018-06-10T08:05:50.569Z,986.73
2018-06-10T08:06:50.575Z,986.63
2018-06-10T08:07:50.591Z,986.7
2018-06-10T08:08:50.603Z,986.61
2018-06-10T08:09:50.608Z,986.61
2018-06-10T08:10:50.614Z,986.7
2018-06-10T08:11:50.623Z,986.67
2018-06-10T08:12:50.630Z,986.73
2018-06-10T08:13:50.638Z,986.71
2018-06-10T08:14:50.653Z,986.71
2018-06-10T08:15:50.655Z,986.7
2018-06-10T08:16:50.664Z,986.64
2018-06-10T08:17:50.673Z,986.65
2018-06-10T08:18:50.684Z,986.64
2018-06-10T08:19:50.705Z,986.6
2018-06-10T08:20:50.701Z,986.52
2018-06-10T08:21:50.724Z,986.6
2018-06-10T08:22:50.723Z,986.61
2018-06-10T08:23:50.723Z,986.48
2018-06-10T08:24:50.740Z,986.47
2018-06-10T08:25:50.750Z,986.49
2018-06-10T08:26:50.752Z,986.45
2018-06-10T08:27:50.758Z,986.49
2018-06-10T08:28:50.762Z,986.51
2018-06-10T08:29:50.807Z,986.55
2018-06-10T08:30:50.780Z,986.5
2018-06-10T08:31:50.786Z,986.5
2018-06-10T08:32:50.807Z,986.47
2018-06-10T08:33:50.802Z,986.48
2018-06-10T08:34:50.807Z,986.47
2018-06-10T08:35:50.812Z,986.56
2018-06-10T08:36:50.821Z,986.57
2018-06-10T08:37:50.842Z,986.57
2018-06-10T08:38:50.834Z,986.57
2018-06-10T08:39:50.843Z,986.55
2018-06-10T08:40:50.862Z,986.61
2018-06-10T08:41:50.858Z,986.63
2018-06-10T08:42:50.866Z,986.66
2018-06-10T08:43:50.901Z,986.67
2018-06-10T08:44:50.881Z,986.73
2018-06-10T08:45:50.886Z,986.65
2018-06-10T08:46:50.899Z,986.59
2018-06-10T08:47:50.904Z,986.58
2018-06-10T08:48:50.911Z,986.55
2018-06-10T08:49:50.939Z,986.67
2018-06-10T08:50:50.926Z,986.57
2018-06-10T08:51:50.943Z,986.59
2018-06-10T08:52:50.950Z,986.54
2018-06-10T08:53:50.951Z,986.54
2018-06-10T08:54:50.965Z,986.51
2018-06-10T08:55:50.962Z,986.61
2018-06-10T08:56:51.012Z,986.52
2018-06-10T08:57:50.976Z,986.64
2018-06-10T08:58:50.988Z,986.57
2018-06-10T08:59:50.991Z,986.59
2018-06-10T09:00:50.998Z,986.57
2018-06-10T09:01:51.006Z,986.57
2018-06-10T09:02:51.065Z,986.56
2018-06-10T09:03:51.021Z,986.54
2018-06-10T09:04:51.029Z,986.52
2018-06-10T09:05:51.037Z,986.43
2018-06-10T09:06:51.044Z,986.53
2018-06-10T09:07:51.051Z,986.5
2018-06-10T09:08:51.134Z,986.51
2018-06-10T09:09:51.068Z,986.55
2018-06-10T09:10:51.074Z,986.49
2018-06-10T09:11:51.087Z,986.54
2018-06-10T09:12:51.090Z,986.52
2018-06-10T09:13:51.096Z,986.54
2018-06-10T09:14:51.114Z,986.48
2018-06-10T09:15:51.111Z,986.43
2018-06-10T09:16:51.127Z,986.38
2018-06-10T09:17:51.126Z,986.38
2018-06-10T09:18:51.131Z,986.44
2018-06-10T09:19:51.137Z,986.43
2018-06-10T09:20:51.145Z,986.54
2018-06-10T09:21:51.149Z,986.54
2018-06-10T09:22:51.158Z,986.53
2018-06-10T09:23:51.167Z,986.47
2018-06-10T09:24:51.177Z,986.5
2018-06-10T09:25:51.179Z,986.49
2018-06-10T09:26:51.181Z,986.48
2018-06-10T09:27:51.208Z,986.46
2018-06-10T09:28:51.218Z,986.46
2018-06-10T09:29:51.199Z,986.44
2018-06-10T09:30:51.210Z,986.4
2018-06-10T09:31:51.213Z,986.39
2018-06-10T09:32:51.220Z,986.41
2018-06-10T09:33:51.223Z,986.39
2018-06-10T09:34:51.230Z,986.33
2018-06-10T09:35:51.235Z,986.3
2018-06-10T09:36:51.243Z,986.33
2018-06-10T09:37:51.247Z,986.37
2018-06-10T09:38:51.255Z,986.34
2018-06-10T09:39:51.256Z,986.38
2018-06-10T09:40:51.266Z,986.34
2018-06-10T09:41:51.273Z,986.38
2018-06-10T09:42:51.276Z,986.34
2018-06-10T09:43:51.281Z,986.4
2018-06-10T09:44:51.289Z,986.41
2018-06-10T09:45:51.296Z,986.47
2018-06-10T09:46:51.300Z,986.44
2018-06-10T09:47:51.309Z,986.43
2018-06-10T09:48:51.316Z,986.39
2018-06-10T09:49:51.335Z,986.38
2018-06-10T09:50:51.328Z,986.39
2018-06-10T09:51:51.333Z,986.42
2018-06-10T09:52:51.345Z,986.43
2018-06-10T09:53:51.351Z,986.44
2018-06-10T09:54:51.365Z,986.46
2018-06-10T09:55:51.357Z,986.44
2018-06-10T09:56:51.380Z,986.45
2018-06-10T09:57:51.370Z,986.48
2018-06-10T09:58:51.379Z,986.44
2018-06-10T09:59:51.386Z,986.39
2018-06-10T10:00:51.389Z,986.37
2018-06-10T10:01:51.398Z,986.29
2018-06-10T10:02:51.407Z,986.3
2018-06-10T10:03:51.408Z,986.26
2018-06-10T10:04:51.418Z,986.23
2018-06-10T10:05:51.461Z,986.28
2018-06-10T10:06:51.433Z,986.23
2018-06-10T10:07:51.434Z,986.29
2018-06-10T10:08:51.461Z,986.31
2018-06-10T10:09:51.448Z,986.4
2018-06-10T10:10:51.454Z,986.33
2018-06-10T10:11:51.459Z,986.31
2018-06-10T10:12:51.466Z,986.31
2018-06-10T10:13:51.473Z,986.32
2018-06-10T10:14:51.477Z,986.3
2018-06-10T10:15:51.481Z,986.27
2018-06-10T10:16:51.490Z,986.25
2018-06-10T10:17:51.495Z,986.23
2018-06-10T10:18:51.506Z,986.26
2018-06-10T10:19:51.505Z,986.21
2018-06-10T10:20:51.536Z,986.27
2018-06-10T10:21:51.520Z,986.26
2018-06-10T10:22:51.526Z,986.25
2018-06-10T10:53:53.398Z,985.87
2018-06-10T10:54:53.400Z,985.89
2018-06-10T10:55:53.398Z,985.9
2018-06-10T10:56:53.400Z,985.88
2018-06-10T10:57:53.407Z,985.91
2018-06-10T10:58:54.222Z,985.98
2018-06-10T10:59:53.413Z,986.02
2018-06-10T11:00:53.419Z,986.03
2018-06-10T11:01:53.451Z,986.04
2018-06-10T11:02:53.430Z,986.04
2018-06-10T11:03:53.439Z,986.1
2018-06-10T11:04:53.434Z,986.16
2018-06-10T11:05:53.477Z,986.17
2018-06-10T11:06:53.448Z,986.19
2018-06-10T11:07:53.452Z,986.16
2018-06-10T11:08:53.470Z,986.17
2018-06-10T11:09:53.461Z,986.04
2018-06-10T11:10:53.469Z,986.05
2018-06-10T11:11:53.474Z,985.96
2018-06-10T11:12:53.479Z,985.98
2018-06-10T11:13:54.295Z,985.98
2018-06-10T11:14:53.526Z,985.96
2018-06-10T11:15:53.501Z,985.9
2018-06-10T11:16:53.503Z,985.92
2018-06-10T11:17:53.506Z,985.87
2018-06-10T11:18:53.520Z,985.84
2018-06-10T11:19:53.525Z,985.92
2018-06-10T11:20:53.528Z,985.84
2018-06-10T11:21:53.531Z,985.82
2018-06-10T11:22:53.536Z,985.75
2018-06-10T11:23:53.693Z,985.84
2018-06-10T11:24:53.556Z,985.87
2018-06-10T11:25:53.556Z,985.84
2018-06-10T11:26:53.564Z,985.85
2018-06-10T11:27:53.566Z,985.87
2018-06-10T11:28:53.573Z,985.87
2018-06-10T11:29:53.578Z,985.85
2018-06-10T11:30:53.592Z,985.86
2018-06-10T11:31:53.596Z,985.83
2018-06-10T11:32:53.597Z,985.73
2018-06-10T11:33:53.606Z,985.76
2018-06-10T11:34:53.622Z,985.77
2018-06-10T11:35:53.616Z,985.72
2018-06-10T11:36:53.654Z,985.74
2018-06-10T11:37:53.627Z,985.71
2018-06-10T11:38:53.682Z,985.72
2018-06-10T11:39:53.639Z,985.78
2018-06-10T11:40:53.640Z,985.75
2018-06-10T11:41:53.647Z,985.69
2018-06-10T11:42:53.656Z,985.71
2018-06-10T11:43:53.660Z,985.66
2018-06-10T11:44:53.683Z,985.67
2018-06-10T11:45:53.670Z,985.65
2018-06-10T11:46:53.678Z,985.66
2018-06-10T11:47:53.680Z,985.63
2018-06-10T11:48:53.700Z,985.65
2018-06-10T11:49:53.697Z,985.67
2018-06-10T11:50:53.697Z,985.67
2018-06-10T11:51:53.704Z,985.65
2018-06-10T11:52:53.710Z,985.65
2018-06-10T11:53:53.964Z,985.63
2018-06-10T11:54:53.720Z,985.58
2018-06-10T11:55:53.727Z,985.64
2018-06-10T11:56:53.730Z,985.66
2018-06-10T11:57:53.788Z,985.67
2018-06-10T11:58:53.747Z,985.72
2018-06-10T11:59:53.747Z,985.71
2018-06-10T12:00:53.753Z,985.68
2018-06-10T12:01:53.819Z,985.67
2018-06-10T12:02:53.764Z,985.63
2018-06-10T12:03:53.769Z,985.64
2018-06-10T12:04:53.774Z,985.68
2018-06-10T12:05:53.781Z,985.67
2018-06-10T12:06:53.787Z,985.67
2018-06-10T12:07:53.872Z,985.67
2018-06-10T12:08:53.800Z,985.64
2018-06-10T12:09:53.799Z,985.66
2018-06-10T12:10:53.882Z,985.59
2018-06-10T12:11:53.821Z,985.49
2018-06-10T12:12:53.819Z,985.45
2018-06-10T12:13:53.836Z,985.46
2018-06-10T12:14:53.847Z,985.47
2018-06-10T12:15:53.839Z,985.46
2018-06-10T12:16:53.844Z,985.49
2018-06-10T12:17:53.849Z,985.48
2018-06-10T12:18:53.853Z,985.5
2018-06-10T12:19:53.860Z,985.49
2018-06-10T12:20:53.865Z,985.5
2018-06-10T12:21:53.870Z,985.52
2018-06-10T12:22:54.062Z,985.55
2018-06-10T12:23:53.934Z,985.54
2018-06-10T12:24:53.900Z,985.49
2018-06-10T12:25:53.907Z,985.46
2018-06-10T12:26:53.907Z,985.43
2018-06-10T12:27:53.921Z,985.47
2018-06-10T12:28:53.911Z,985.5
2018-06-10T12:29:53.918Z,985.53
2018-06-10T12:30:53.922Z,985.5
2018-06-10T12:31:53.935Z,985.48
2018-06-10T12:32:53.936Z,985.44
2018-06-10T12:33:53.939Z,985.45
2018-06-10T12:34:53.944Z,985.46
2018-06-10T12:35:53.950Z,985.48
2018-06-10T12:36:53.968Z,985.51
2018-06-10T12:37:53.965Z,985.54
2018-06-10T12:38:54.020Z,985.59
2018-06-10T12:39:53.972Z,985.65
2018-06-10T12:40:53.979Z,985.68
2018-06-10T12:41:54.000Z,985.76
2018-06-10T12:42:53.990Z,985.72
2018-06-10T12:43:54.001Z,985.71
2018-06-10T12:44:54.002Z,985.7
2018-06-10T12:45:54.025Z,985.66
2018-06-10T12:46:54.022Z,985.64
2018-06-10T12:47:54.023Z,985.64
2018-06-10T12:48:54.027Z,985.62
2018-06-10T12:49:54.035Z,985.61
2018-06-10T12:50:54.053Z,985.62
2018-06-10T12:51:54.045Z,985.55
2018-06-10T12:52:54.052Z,985.49
2018-06-10T12:53:54.063Z,985.52
2018-06-10T12:54:54.111Z,985.5
2018-06-10T12:55:54.076Z,985.53
2018-06-10T12:56:54.148Z,985.56
2018-06-10T12:57:54.085Z,985.55
2018-06-10T12:58:54.089Z,985.57
2018-06-10T12:59:54.097Z,985.59
2018-06-10T13:00:54.099Z,985.62
2018-06-10T13:01:54.109Z,985.56